• Join FlightAware (Why Join?)
  • Login
  • US Flag 
06:22PM EDT


 

Airport Tracker/Info


-or-


 

Live Flight TrackerFlight Track Log ✈ EMD21 ✈ 14-Jul-2013 ✈ KPWA - KMLC

Flight Track Log - Related Links

Times and Time Zones

All times are in EDT time to prevent confusion due to time zone crossing. See the EMD21 flight status page for this flight to view local times or setup timezone preferences in your user account.

Time Position Orientation Groundspeed Altitude Reporting Facility
EDT Latitude Longitude Course Direction KTS MPH feet Rate Location/Type
06:14PM 35.5206 -97.6456 126° Southeast 137 158 1,700  Level Fort Worth Center
06:15PM 35.4978 -97.5919 118° Southeast 167 192 3,000 960 Climbing Fort Worth Center
06:16PM 35.4833 -97.5564 117° Southeast 161 185 3,600 600 Climbing Fort Worth Center
06:17PM 35.4644 -97.5003 112° Southeast 183 211 4,100 600 Climbing Fort Worth Center
06:18PM 35.4458 -97.4417 111° Southeast 178 205 4,900 660 Climbing Fort Worth Center
06:19PM 35.4269 -97.3881 113° Southeast 173 199 5,500 720 Climbing Fort Worth Center
06:20PM 35.4198 -97.3119 126° Southeast  Level Estimated
06:20PM 35.4083 -97.3219 109° East 172 198 6,400  Level Fort Worth Center
06:21PM 35.3894 -97.2683 113° Southeast 172 198 6,900 300 Climbing Fort Worth Center
06:22PM 35.3664 -97.2100 116° Southeast 185 213 7,000  Climbing Fort Worth Center
06:23PM 35.3456 -97.1489 113° Southeast 197 227 7,000  Level Fort Worth Center
06:24PM 35.3244 -97.0878 113° Southeast 207 238 7,000  Level Fort Worth Center
06:25PM 35.3033 -97.0244 112° Southeast 207 238 7,000  Level Fort Worth Center
06:26PM 35.2803 -96.9583 113° Southeast 212 244 7,000  Level Fort Worth Center
06:27PM 35.2592 -96.8950 112° Southeast 212 244 7,100  Climbing Fort Worth Center
06:28PM 35.2381 -96.8289 111° Southeast 212 244 7,100  Level Fort Worth Center
06:29PM 35.2147 -96.7656 114° Southeast 212 244 7,100 -60 Level Fort Worth Center
06:30PM 35.1936 -96.6997 111° Southeast 207 238 7,000  Descending Fort Worth Center
06:31PM 35.1722 -96.6364 112° Southeast 207 238 7,100  Climbing Fort Worth Center
06:32PM 35.1489 -96.5706 113° Southeast 207 238 7,100 -120 Level Fort Worth Center
06:33PM 35.1256 -96.5047 113° Southeast 212 244 6,900 -60 Descending Fort Worth Center
06:34PM 35.1042 -96.4417 113° Southeast 212 244 7,000 -360 Climbing Fort Worth Center
06:35PM 35.0808 -96.3733 113° Southeast 212 244 6,200 -720 Descending Fort Worth Center
06:36PM 35.0614 -96.3103 111° Southeast 212 244 5,600 -660 Descending Fort Worth Center
06:37PM 35.0381 -96.2472 114° Southeast 207 238 4,900 -840 Descending Fort Worth Center
06:38PM 35.0186 -96.1839 111° Southeast 207 238 4,000 -900 Descending Fort Worth Center
06:39PM 34.9950 -96.1158 113° Southeast 212 244 3,200 -600 Descending Fort Worth Center
06:40PM 34.9714 -96.0503 114° Southeast 212 244 2,900 -300 Descending Fort Worth Center